Estaciones Metar próximas

 

LELL - Sabadell, Spain
Distancia a la estación: E 18km
Actualizado: 21/06/2018 16:00
Despejado
Despejado
 Viento del ESE
Viento: ESE 17 km/h
Temperatura: 32°C
Rocío: 15°C
Humedad: 36%
Barómetro: 1017 hPa
Resumen: Despejado
Visibilidad: greater than 10 km
2018/06/21 14:00 LELL 211400Z 11009KT 070V160 CAVOK 32/15 Q1017
LEBL - Barcelona Airpor, Spain
Distancia a la estación: SSE 33km
Actualizado: 21/06/2018 16:00
Despejado
Despejado
 Viento del SSO
Viento: SSO 19 km/h
Temperatura: 27°C
Heat Index: 28°C
Rocío: 16°C
Humedad: 51%
Barómetro: 1017 hPa
Resumen: Despejado
Visibilidad: greater than 10 km
2018/06/21 14:00 LEBL 211400Z 20010KT 160V220 CAVOK 27/16 Q1017 NOSIG
LERS - Reus (civ/Mil), Spain
Distancia a la estación: SO 75km
Actualizado: 21/06/2018 16:00
Nubes dispersas
Nubes dispersas
 Viento del SSO
Viento: SSO 13 km/h
Temperatura: 30°C
Rocío: 13°C
Humedad: 35%
Barómetro: 1017 hPa
Nubes: Nubes dispersas
Visibilidad: 10 km
Detalle Nubes: Nubes dispersas 1524 m
2018/06/21 14:00 LERS 211400Z 20007KT 140V250 9999 FEW050 30/13 Q1017
 
LEGE - Gerona/Costa Bra, Spain
Distancia a la estación: ENE 83km
Actualizado: 21/06/2018 16:00
Nubes dispersas
Nubes dispersas
 Viento del SSO
Viento: SSO 15 km/h
Temperatura: 32°C
Rocío: 12°C
Humedad: 29%
Barómetro: 1017 hPa
Nubes: Nubes dispersas
Visibilidad: 10 km
Detalle Nubes: Nubes dispersas 914 m
2018/06/21 14:00 LEGE 211400Z 20008KT 150V260 9999 FEW030 32/12 Q1017
LFMP - Perpignan/Rivesa, France
Distancia a la estación: NNE 155km
Actualizado: 21/06/2018 16:00
Nubes dispersas
Nubes dispersas
 Viento del SE
Viento: SE 9 km/h
Temperatura: 32°C
Heat Index: 33°C
Rocío: 18°C
Humedad: 43%
Barómetro: 1016 hPa
Nubes: Nubes dispersas
Visibilidad: 10 km
Detalle Nubes: Nubes dispersas 2316 m
2018/06/21 14:00 LFMP 211400Z AUTO 13005KT 100V170 9999 FEW076/// 32/18 Q1016 TEMPO FEW030CB BECMG 32012KT
LFMK - Carcassonne/Salv, France
Distancia a la estación: N 191km
Actualizado: 21/06/2018 16:00
Despejado
Despejado
 Viento del O
Viento: O 22 km/h
Temperatura: 30°C
Heat Index: 32°C
Rocío: 20°C
Humedad: 55%
Barómetro: 1017 hPa
Resumen: Despejado
Visibilidad: greater than 10 km
2018/06/21 14:00 LFMK 211400Z AUTO 27012KT 230V300 CAVOK 30/20 Q1017 NOSIG
 
LEHC - Huesca-Pirineos, Spain
Distancia a la estación: ONO 193km
Actualizado: 21/06/2018 16:00
Despejado
Despejado
 Viento del SO
Viento: SO 9 km/h
Temperatura: 32°C
Rocío: 12°C
Humedad: 29%
Barómetro: 1018 hPa
Resumen: Despejado
Visibilidad: greater than 10 km
2018/06/21 14:00 LEHC 211400Z 22005KT 140V280 CAVOK 32/12 Q1018
LFMU - Beziers/Vias, France
Distancia a la estación: NNE 232km
Actualizado: 21/06/2018 16:00
Despejado
Despejado
 Viento del SO
Viento: SO 15 km/h
Temperatura: 29°C
Heat Index: 29°C
Rocío: 17°C
Humedad: 48%
Barómetro: 1016 hPa
Resumen: Despejado
Visibilidad: greater than 10 km
2018/06/21 14:00 LFMU 211400Z AUTO 22008KT 180V270 CAVOK 29/17 Q1016 NOSIG
LEPA - Palma De Mallorc, Spain
Distancia a la estación: SSE 233km
Actualizado: 21/06/2018 16:00
Nubes dispersas
Nubes dispersas
 Viento del SO
Viento: SO 20 km/h
Temperatura: 28°C
Heat Index: 29°C
Rocío: 19°C
Humedad: 58%
Barómetro: 1017 hPa
Nubes: Nubes dispersas
Visibilidad: 10 km
Detalle Nubes: Nubes dispersas 914 m
2018/06/21 14:00 LEPA 211400Z 22011KT 190V250 9999 FEW030 28/19 Q1017 NOSIG
 
LFBO - Toulouse/Blagnac, France
Distancia a la estación: N 236km
Actualizado: 21/06/2018 16:00
Despejado
Despejado
 Viento del NO
Viento: NO 11 km/h
Temperatura: 28°C
Heat Index: 30°C
Rocío: 21°C
Humedad: 66%
Barómetro: 1019 hPa
Resumen: Despejado
Visibilidad: greater than 10 km
2018/06/21 14:00 LFBO 211400Z AUTO 31006KT 270V340 CAVOK 28/21 Q1019 TEMPO 4000 SHRA BECMG SCT040TCU
LFBT - Tarbes/Ossun, France
Distancia a la estación: NO 239km
Actualizado: 21/06/2018 16:00
Muy nuboso
Muy nuboso
 Viento del O
Viento: O 20 km/h
Temperatura: 26°C
Rocío: 20°C
Humedad: 70%
Barómetro: 1021 hPa
Nubes: Muy nuboso
Visibilidad: 10 km
Detalle Nubes: Muy nuboso 640 m
Muy nuboso 792 m
2018/06/21 14:00 LFBT 211400Z AUTO 28011KT 250V320 9999 BKN021 BKN026 26/20 Q1021 TEMPO -TSRA SCT020 BKN030CB
LEZG - Zaragoza (mil/Ci, Spain
Distancia a la estación: O 242km
Actualizado: 21/06/2018 16:00
Despejado
Despejado
 Viento del NE
Viento: NE 6 km/h
Temperatura: 35°C
Rocío: 10°C
Humedad: 22%
Barómetro: 1017 hPa
Resumen: Despejado
Visibilidad: greater than 10 km
2018/06/21 14:00 LEZG 211400Z 05003KT CAVOK 35/10 Q1017